Kittredge, Colorado
Current Conditions -  °F | °C
As of 12:47 PM on Monday 24 Nov 2014 (Local Time) from KBJC Reporting Station
Broken Clouds Broken Clouds  
Wind Chill: 32°   Ceiling: 15000
Heat Index: 41°   Visibility: 50mi
Dew Point:   Wind: 17mph
Humidity: 26%   Direction: 260°W
Pressure: 29.98"   Gusts: 24mph
Location:  39.66°N, 105.3°W
Report Text: KBJC 241947Z 26015G21KT 50SM FEW060 SCT090 BKN150 05/M13 A2998
Loading
Personal Weather Stations






























Interactive Weather Map New forecast layout! Learn more

10-Day Weather Forecast

Advertisements
Track Severe Weather on mobile